createdAt,value
2018-12-29T00:00:43.300Z,47.17
2018-12-29T00:02:58.196Z,45.67
2018-12-29T00:05:13.036Z,46.17
2018-12-29T00:07:28.005Z,43.77
2018-12-29T00:09:43.020Z,47.67
2018-12-29T00:11:57.813Z,43.67
2018-12-29T00:14:12.840Z,41.93
2018-12-29T00:16:27.841Z,43.77
2018-12-29T00:18:42.311Z,43.97
2018-12-29T00:20:56.981Z,39.70
2018-12-29T00:23:12.060Z,43.10
2018-12-29T00:25:26.870Z,42.97
2018-12-29T00:27:41.765Z,42.60
2018-12-29T00:29:56.636Z,44.67
2018-12-29T00:32:11.512Z,41.00
2018-12-29T00:34:26.628Z,40.80
2018-12-29T00:36:41.361Z,40.47
2018-12-29T00:38:56.112Z,37.87
2018-12-29T00:41:10.905Z,40.60
2018-12-29T00:43:25.785Z,40.17
2018-12-29T00:45:40.616Z,40.67
2018-12-29T00:47:55.648Z,41.60
2018-12-29T00:50:10.732Z,41.70
2018-12-29T00:52:25.320Z,40.33
2018-12-29T00:54:40.312Z,39.27
2018-12-29T00:56:55.482Z,41.03
2018-12-29T00:59:10.076Z,41.17
2018-12-29T01:04:05.224Z,37.17
2018-12-29T01:06:20.340Z,38.57
2018-12-29T01:08:35.212Z,39.30
2018-12-29T01:10:50.444Z,40.03
2018-12-29T01:13:05.452Z,40.80
2018-12-29T01:15:20.428Z,44.47
2018-12-29T01:17:35.236Z,39.80
2018-12-29T01:19:49.384Z,43.83
2018-12-29T01:22:04.238Z,42.87
2018-12-29T01:24:19.080Z,43.23
2018-12-29T01:26:34.228Z,39.13
2018-12-29T01:28:48.896Z,39.77
2018-12-29T01:31:03.824Z,41.30
2018-12-29T01:33:18.810Z,42.83
2018-12-29T01:35:33.887Z,44.90
2018-12-29T01:37:48.810Z,40.43
2018-12-29T01:40:03.913Z,42.93
2018-12-29T01:42:18.584Z,42.17
2018-12-29T01:44:33.635Z,43.13
2018-12-29T01:46:48.653Z,41.07
2018-12-29T01:49:03.588Z,43.23
2018-12-29T01:51:18.249Z,44.90
2018-12-29T01:53:33.039Z,44.47
2018-12-29T01:55:47.920Z,41.77
2018-12-29T01:58:03.064Z,39.00
2018-12-29T02:00:18.235Z,40.53
2018-12-29T02:02:32.952Z,40.97
2018-12-29T02:04:47.959Z,44.90
2018-12-29T02:07:03.489Z,44.67
2018-12-29T02:09:18.472Z,40.50
2018-12-29T02:11:32.662Z,41.80
2018-12-29T02:13:47.683Z,41.97
2018-12-29T02:16:02.615Z,39.63
2018-12-29T02:18:17.673Z,42.83
2018-12-29T02:20:32.596Z,39.53
2018-12-29T02:22:47.465Z,41.67
2018-12-29T02:25:02.500Z,42.03
2018-12-29T02:27:17.392Z,38.77
2018-12-29T02:29:32.641Z,44.03
2018-12-29T02:31:47.299Z,39.60
2018-12-29T02:34:02.255Z,43.40
2018-12-29T02:36:17.333Z,43.77
2018-12-29T02:38:32.317Z,42.80
2018-12-29T02:40:47.422Z,40.97
2018-12-29T02:43:02.451Z,44.10
2018-12-29T02:45:17.293Z,40.00
2018-12-29T02:47:32.581Z,42.70
2018-12-29T02:49:47.285Z,42.80
2018-12-29T02:52:01.414Z,42.60
2018-12-29T02:54:16.720Z,41.97
2018-12-29T02:56:31.453Z,38.47
2018-12-29T02:58:46.412Z,38.87
2018-12-29T03:01:01.048Z,41.27
2018-12-29T03:03:16.142Z,44.20
2018-12-29T03:05:30.921Z,38.73
2018-12-29T03:07:45.159Z,41.70
2018-12-29T03:09:59.932Z,38.67
2018-12-29T03:12:14.741Z,40.80
2018-12-29T03:14:29.937Z,39.67
2018-12-29T03:16:44.449Z,38.13
2018-12-29T03:18:59.325Z,38.17
2018-12-29T03:21:16.052Z,38.20
2018-12-29T03:23:31.042Z,39.40
2018-12-29T03:25:46.006Z,39.70
2018-12-29T03:28:00.376Z,35.17
2018-12-29T03:30:15.009Z,39.87
2018-12-29T03:32:30.026Z,39.20
2018-12-29T03:34:45.296Z,36.90
2018-12-29T03:36:59.737Z,39.30
2018-12-29T03:39:14.565Z,37.50
2018-12-29T03:41:29.521Z,39.27
2018-12-29T03:43:44.482Z,35.60
2018-12-29T03:45:59.072Z,38.17
2018-12-29T03:48:14.160Z,39.60
2018-12-29T03:53:09.156Z,35.73
2018-12-29T03:55:24.070Z,36.10
2018-12-29T03:57:38.945Z,33.10
2018-12-29T03:59:54.104Z,36.57
2018-12-29T04:02:08.758Z,38.57
2018-12-29T04:04:22.956Z,35.43
2018-12-29T04:06:37.148Z,37.13
2018-12-29T04:08:51.886Z,32.63
2018-12-29T04:11:06.813Z,37.57
2018-12-29T04:13:21.669Z,31.13
2018-12-29T04:15:36.671Z,33.10
2018-12-29T04:17:51.394Z,36.03
2018-12-29T04:20:06.296Z,33.20
2018-12-29T04:22:21.240Z,37.60
2018-12-29T04:24:36.160Z,34.70
2018-12-29T04:26:51.108Z,37.30
2018-12-29T04:29:06.085Z,38.50
2018-12-29T04:31:20.905Z,34.37
2018-12-29T04:33:35.836Z,33.97
2018-12-29T04:35:50.761Z,36.53
2018-12-29T04:38:05.673Z,36.23
2018-12-29T04:40:20.524Z,38.23
2018-12-29T04:42:35.484Z,36.77
2018-12-29T04:44:50.313Z,35.83
2018-12-29T04:47:05.170Z,37.07
2018-12-29T04:49:20.077Z,36.57
2018-12-29T04:51:35.312Z,37.20
2018-12-29T04:53:49.793Z,35.37
2018-12-29T04:56:04.933Z,39.07
2018-12-29T04:58:19.712Z,35.97
2018-12-29T05:00:34.465Z,35.33
2018-12-29T05:02:49.404Z,35.50
2018-12-29T05:05:04.309Z,38.50
2018-12-29T05:07:19.188Z,36.20
2018-12-29T05:12:14.269Z,32.90
2018-12-29T05:14:29.123Z,34.40
2018-12-29T05:16:44.000Z,34.53
2018-12-29T05:18:58.957Z,31.70
2018-12-29T05:21:13.809Z,34.47
2018-12-29T05:23:28.657Z,33.27
2018-12-29T05:25:43.653Z,34.23
2018-12-29T05:27:58.608Z,30.80
2018-12-29T05:30:12.736Z,32.17
2018-12-29T05:32:27.861Z,32.67
2018-12-29T05:37:19.548Z,31.73
2018-12-29T05:39:34.496Z,31.33
2018-12-29T05:41:49.521Z,29.73
2018-12-29T05:44:04.519Z,29.80
2018-12-29T05:46:20.593Z,31.93
2018-12-29T05:48:34.956Z,29.90
2018-12-29T05:50:50.095Z,31.17
2018-12-29T05:53:04.997Z,28.60
2018-12-29T05:55:19.805Z,31.10
2018-12-29T05:57:34.861Z,29.23
2018-12-29T05:59:49.812Z,29.23
2018-12-29T06:02:04.710Z,29.97
2018-12-29T06:09:46.692Z,30.67
2018-12-29T06:12:01.780Z,29.20
2018-12-29T06:14:16.168Z,29.10
2018-12-29T06:16:30.945Z,29.23
2018-12-29T06:18:46.072Z,29.20
2018-12-29T06:21:00.744Z,30.50
2018-12-29T06:23:15.820Z,27.77
2018-12-29T06:25:30.848Z,30.33
2018-12-29T06:27:46.072Z,32.90
2018-12-29T06:30:00.776Z,26.83
2018-12-29T06:32:15.482Z,32.30
2018-12-29T06:34:30.581Z,31.93
2018-12-29T06:36:45.560Z,30.87
2018-12-29T06:39:00.340Z,29.07
2018-12-29T06:41:15.641Z,30.27
2018-12-29T06:43:30.536Z,30.60
2018-12-29T06:45:45.376Z,30.67
2018-12-29T06:48:00.445Z,27.67
2018-12-29T06:50:15.508Z,30.13
2018-12-29T06:52:30.541Z,28.03
2018-12-29T06:54:45.521Z,31.57
2018-12-29T06:57:00.373Z,31.93
2018-12-29T06:59:15.269Z,29.33
2018-12-29T07:01:30.400Z,29.40
2018-12-29T07:03:46.706Z,33.77
2018-12-29T07:06:01.232Z,32.30
2018-12-29T07:08:16.294Z,32.07
2018-12-29T07:10:31.108Z,30.30
2018-12-29T07:12:46.097Z,33.50
2018-12-29T07:15:00.688Z,32.17
2018-12-29T07:17:15.968Z,32.20
2018-12-29T07:19:30.950Z,31.67
2018-12-29T07:21:45.744Z,31.97
2018-12-29T07:24:00.564Z,32.57
2018-12-29T07:26:15.364Z,32.03
2018-12-29T07:28:30.352Z,32.70
2018-12-29T07:30:45.352Z,32.10
2018-12-29T07:33:00.700Z,27.17
2018-12-29T07:35:16.823Z,31.07
2018-12-29T07:37:31.194Z,28.50
2018-12-29T07:39:46.264Z,29.93
2018-12-29T07:42:01.076Z,28.40
2018-12-29T07:44:15.798Z,31.87
2018-12-29T07:46:30.752Z,30.10
2018-12-29T07:48:44.920Z,26.10
2018-12-29T07:50:59.764Z,29.10
2018-12-29T07:53:14.764Z,29.97
2018-12-29T07:55:29.793Z,25.10
2018-12-29T07:57:44.548Z,26.27
2018-12-29T07:59:59.415Z,25.57
2018-12-29T08:02:14.652Z,26.10
2018-12-29T08:04:29.200Z,26.00
2018-12-29T08:06:44.296Z,26.37
2018-12-29T08:08:59.024Z,25.63
2018-12-29T08:11:14.117Z,27.17
2018-12-29T08:13:28.627Z,26.53
2018-12-29T08:15:43.616Z,25.47
2018-12-29T08:17:58.788Z,24.10
2018-12-29T08:20:13.457Z,24.33
2018-12-29T08:22:28.466Z,25.27
2018-12-29T08:24:43.333Z,24.20
2018-12-29T08:29:38.197Z,21.80
2018-12-29T08:31:52.978Z,27.03
2018-12-29T08:34:07.865Z,27.43
2018-12-29T08:36:22.977Z,27.83
2018-12-29T08:38:37.774Z,26.90
2018-12-29T08:40:52.656Z,28.30
2018-12-29T08:43:07.489Z,26.00
2018-12-29T08:45:22.716Z,26.87
2018-12-29T08:47:37.948Z,25.40
2018-12-29T08:49:52.696Z,27.30
2018-12-29T08:52:07.332Z,24.93
2018-12-29T08:54:22.048Z,28.80
2018-12-29T08:56:37.256Z,25.27
2018-12-29T08:58:51.660Z,29.70
2018-12-29T09:01:06.633Z,25.40
2018-12-29T09:03:22.519Z,30.23
2018-12-29T09:05:37.348Z,30.07
2018-12-29T09:07:52.172Z,27.00
2018-12-29T09:10:06.528Z,27.40
2018-12-29T09:12:21.205Z,25.80
2018-12-29T09:14:36.204Z,25.90
2018-12-29T09:16:51.101Z,28.83
2018-12-29T09:19:05.893Z,29.87
2018-12-29T09:21:20.608Z,30.90
2018-12-29T09:23:35.580Z,26.87
2018-12-29T09:25:50.398Z,28.10
2018-12-29T09:28:05.381Z,27.07
2018-12-29T09:30:20.280Z,27.90
2018-12-29T09:32:35.313Z,17.30
2018-12-29T09:34:50.425Z,27.57
2018-12-29T09:37:05.188Z,28.57
2018-12-29T09:39:20.175Z,27.23
2018-12-29T09:44:22.297Z,28.80
2018-12-29T09:46:36.984Z,26.20
2018-12-29T09:48:51.957Z,26.97
2018-12-29T09:51:06.762Z,27.00
2018-12-29T09:53:21.764Z,29.70
2018-12-29T09:55:36.590Z,28.10
2018-12-29T09:57:51.450Z,26.40
2018-12-29T10:00:06.256Z,26.00
2018-12-29T10:02:21.167Z,29.07
2018-12-29T10:04:35.861Z,28.13
2018-12-29T10:06:50.697Z,26.57
2018-12-29T10:09:05.736Z,27.00
2018-12-29T10:11:20.568Z,24.90
2018-12-29T10:13:35.333Z,26.07
2018-12-29T10:15:50.222Z,26.17
2018-12-29T10:18:05.224Z,27.20
2018-12-29T10:20:20.109Z,26.80
2018-12-29T10:22:35.164Z,28.83
2018-12-29T10:24:50.195Z,26.70
2018-12-29T10:27:05.026Z,28.00
2018-12-29T10:29:19.921Z,27.77
2018-12-29T10:31:34.918Z,23.87
2018-12-29T10:33:49.745Z,29.67
2018-12-29T10:36:05.036Z,26.57
2018-12-29T10:38:19.636Z,21.40
2018-12-29T10:40:34.533Z,25.83
2018-12-29T10:42:49.612Z,25.60
2018-12-29T10:45:04.333Z,21.30
2018-12-29T10:47:19.784Z,23.87
2018-12-29T10:49:34.614Z,27.57
2018-12-29T10:51:49.837Z,17.80
2018-12-29T10:56:44.996Z,24.37
2018-12-29T10:58:59.860Z,23.87
2018-12-29T11:01:15.030Z,27.60
2018-12-29T11:03:29.916Z,25.73
2018-12-29T11:05:44.834Z,21.20
2018-12-29T11:07:59.852Z,26.50
2018-12-29T11:10:14.762Z,28.37
2018-12-29T11:12:29.512Z,26.90
2018-12-29T11:14:44.552Z,24.00
2018-12-29T11:16:58.717Z,27.47
2018-12-29T11:19:13.496Z,24.80
2018-12-29T11:21:28.542Z,21.77
2018-12-29T11:23:43.576Z,25.50
2018-12-29T11:25:58.586Z,24.63
2018-12-29T11:28:13.760Z,23.70
2018-12-29T11:30:28.373Z,22.83
2018-12-29T11:32:43.280Z,24.00
2018-12-29T11:34:58.212Z,25.07
2018-12-29T11:37:13.385Z,23.37
2018-12-29T11:39:28.024Z,23.40
2018-12-29T11:41:43.092Z,26.00
2018-12-29T11:43:58.092Z,24.07
2018-12-29T11:46:12.869Z,23.00
2018-12-29T11:48:27.820Z,24.97
2018-12-29T11:50:42.849Z,26.00
2018-12-29T11:52:57.797Z,27.60
2018-12-29T11:55:12.714Z,26.60
2018-12-29T11:57:27.482Z,24.30
2018-12-29T11:59:42.428Z,27.03
2018-12-29T12:01:57.448Z,28.90
2018-12-29T12:04:12.172Z,25.63
2018-12-29T12:06:27.010Z,29.20
2018-12-29T12:08:41.688Z,23.87
2018-12-29T12:10:56.870Z,26.50
2018-12-29T12:13:11.602Z,27.70
2018-12-29T12:15:26.664Z,31.10
2018-12-29T12:17:41.652Z,29.10
2018-12-29T12:19:56.112Z,27.20
2018-12-29T12:22:10.845Z,20.97
2018-12-29T12:24:25.780Z,30.50
2018-12-29T12:29:27.832Z,31.70
2018-12-29T12:31:42.844Z,33.60
2018-12-29T12:33:57.544Z,35.80
2018-12-29T12:36:12.580Z,35.30
2018-12-29T12:38:27.245Z,32.90
2018-12-29T12:40:42.372Z,34.57
2018-12-29T12:42:57.320Z,34.17
2018-12-29T12:45:12.224Z,36.77
2018-12-29T12:47:27.337Z,37.13
2018-12-29T12:49:42.116Z,37.20
2018-12-29T12:51:57.096Z,35.87
2018-12-29T12:54:12.228Z,34.13
2018-12-29T12:56:27.209Z,33.00
2018-12-29T12:58:42.313Z,32.40
2018-12-29T13:00:57.247Z,31.87
2018-12-29T13:03:12.159Z,34.83
2018-12-29T13:05:27.198Z,34.57
2018-12-29T13:07:42.240Z,40.77
2018-12-29T13:09:57.240Z,36.43
2018-12-29T13:12:11.871Z,35.70
2018-12-29T13:14:26.768Z,36.50
2018-12-29T13:16:41.732Z,31.97
2018-12-29T13:18:56.736Z,31.33
2018-12-29T13:21:11.512Z,37.47
2018-12-29T13:23:26.336Z,37.93
2018-12-29T13:25:41.440Z,31.00
2018-12-29T13:27:55.594Z,42.67
2018-12-29T13:30:10.574Z,38.67
2018-12-29T13:32:25.524Z,38.03
2018-12-29T13:34:40.478Z,37.47
2018-12-29T13:36:55.667Z,41.50
2018-12-29T13:39:09.989Z,34.83
2018-12-29T13:41:24.828Z,43.70
2018-12-29T13:43:39.702Z,40.40
2018-12-29T13:45:54.888Z,34.70
2018-12-29T13:48:09.587Z,37.37
2018-12-29T13:50:24.526Z,21.70
2018-12-29T13:52:39.360Z,30.07
2018-12-29T13:54:53.512Z,30.10
2018-12-29T13:57:08.520Z,26.77
2018-12-29T13:59:23.457Z,31.07
2018-12-29T14:01:38.357Z,28.60
2018-12-29T14:03:53.241Z,32.63
2018-12-29T14:06:08.313Z,31.33
2018-12-29T14:08:23.109Z,32.00
2018-12-29T14:10:37.908Z,30.87
2018-12-29T14:12:52.826Z,35.57
2018-12-29T14:15:08.156Z,30.47
2018-12-29T14:17:22.812Z,33.80
2018-12-29T14:19:37.792Z,35.10
2018-12-29T14:21:52.808Z,32.20
2018-12-29T14:24:07.866Z,29.00
2018-12-29T14:26:22.897Z,27.57
2018-12-29T14:28:37.849Z,29.40
2018-12-29T14:30:52.681Z,26.07
2018-12-29T14:33:07.765Z,25.00
2018-12-29T14:35:22.801Z,30.97
2018-12-29T14:37:37.820Z,27.37
2018-12-29T14:39:52.989Z,24.77
2018-12-29T14:42:07.848Z,25.57
2018-12-29T14:44:22.648Z,30.20
2018-12-29T14:46:37.425Z,26.57
2018-12-29T14:48:52.613Z,29.47
2018-12-29T14:51:07.636Z,27.10
2018-12-29T14:53:22.575Z,23.40
2018-12-29T14:55:36.719Z,23.87
2018-12-29T14:57:51.888Z,18.27
2018-12-29T15:00:06.616Z,24.47
2018-12-29T15:02:21.456Z,23.07
2018-12-29T15:04:36.429Z,22.03
2018-12-29T15:06:51.308Z,18.07
2018-12-29T15:09:05.956Z,13.50
2018-12-29T15:11:20.901Z,23.30
2018-12-29T15:13:36.015Z,22.57
2018-12-29T15:15:51.054Z,21.73
2018-12-29T15:18:06.052Z,23.97
2018-12-29T15:20:20.729Z,24.90
2018-12-29T15:22:35.704Z,25.00
2018-12-29T15:24:51.005Z,24.53
2018-12-29T15:27:05.689Z,27.97
2018-12-29T15:29:20.715Z,25.37
2018-12-29T15:31:35.612Z,28.77
2018-12-29T15:39:10.404Z,22.27
2018-12-29T15:41:25.401Z,26.30
2018-12-29T15:43:40.948Z,24.27
2018-12-29T15:45:55.696Z,15.60
2018-12-29T15:48:10.449Z,26.60
2018-12-29T15:50:24.613Z,17.20
2018-12-29T15:52:39.604Z,22.30
2018-12-29T15:54:54.723Z,12.23
2018-12-29T15:57:09.761Z,20.63
2018-12-29T15:59:24.508Z,22.03
2018-12-29T16:01:39.811Z,23.77
2018-12-29T16:03:54.520Z,16.70
2018-12-29T16:06:09.608Z,17.90
2018-12-29T16:08:24.375Z,20.50
2018-12-29T16:10:39.325Z,21.30
2018-12-29T16:12:54.195Z,19.77
2018-12-29T16:15:09.009Z,15.90
2018-12-29T16:17:24.036Z,19.10
2018-12-29T16:19:39.004Z,18.57
2018-12-29T16:21:53.837Z,17.23
2018-12-29T16:24:08.958Z,19.43
2018-12-29T16:26:23.724Z,16.47
2018-12-29T16:28:38.556Z,14.90
2018-12-29T16:30:53.437Z,17.37
2018-12-29T16:33:08.424Z,13.73
2018-12-29T16:35:23.328Z,8.40
2018-12-29T16:37:38.312Z,13.20
2018-12-29T16:39:53.219Z,14.20
2018-12-29T16:42:08.016Z,13.33
2018-12-29T16:44:22.768Z,9.20
2018-12-29T16:46:37.604Z,16.30
2018-12-29T16:48:52.813Z,15.33
2018-12-29T16:51:07.721Z,13.47
2018-12-29T16:53:28.945Z,16.90
2018-12-29T16:55:39.172Z,9.43
2018-12-29T16:57:53.865Z,18.27
2018-12-29T17:00:08.536Z,11.90
2018-12-29T17:02:23.438Z,17.50
2018-12-29T17:04:38.421Z,16.50
2018-12-29T17:06:53.286Z,15.33
2018-12-29T17:09:08.273Z,7.80
2018-12-29T17:11:23.468Z,12.70
2018-12-29T17:13:38.236Z,15.17
2018-12-29T17:15:53.179Z,9.10
2018-12-29T17:18:08.320Z,11.60
2018-12-29T17:20:23.220Z,13.37
2018-12-29T17:22:38.233Z,13.60
2018-12-29T17:24:53.092Z,11.97
2018-12-29T17:27:08.085Z,9.77
2018-12-29T17:29:23.188Z,12.60
2018-12-29T17:31:38.280Z,10.10
2018-12-29T17:33:53.145Z,10.07
2018-12-29T17:36:07.800Z,8.80
2018-12-29T17:38:22.737Z,10.53
2018-12-29T17:40:37.670Z,12.30
2018-12-29T17:42:52.512Z,12.97
2018-12-29T17:45:07.564Z,9.50
2018-12-29T17:47:22.332Z,13.00
2018-12-29T17:49:37.149Z,10.83
2018-12-29T17:54:39.152Z,9.50
2018-12-29T17:56:54.061Z,9.03
2018-12-29T17:59:09.101Z,4.70
2018-12-29T18:01:23.838Z,9.67
2018-12-29T18:03:38.776Z,8.80
2018-12-29T18:05:53.661Z,10.80
2018-12-29T18:08:08.540Z,10.90
2018-12-29T18:10:23.621Z,9.37
2018-12-29T18:12:38.648Z,4.80
2018-12-29T18:14:53.497Z,12.70
2018-12-29T18:17:07.672Z,13.67
2018-12-29T18:19:30.312Z,12.57
2018-12-29T18:21:39.748Z,12.23
2018-12-29T18:23:54.306Z,11.20
2018-12-29T18:26:09.057Z,13.20
2018-12-29T18:28:23.954Z,12.53
2018-12-29T18:30:38.633Z,10.37
2018-12-29T18:32:53.673Z,12.80
2018-12-29T18:35:08.444Z,7.90
2018-12-29T18:37:23.516Z,8.13
2018-12-29T18:39:38.016Z,14.23
2018-12-29T18:41:52.912Z,17.40
2018-12-29T18:44:07.987Z,18.53
2018-12-29T18:46:22.896Z,15.80
2018-12-29T18:48:37.933Z,16.77
2018-12-29T18:50:52.988Z,12.47
2018-12-29T18:53:07.864Z,18.47
2018-12-29T18:55:22.685Z,16.63
2018-12-29T18:57:37.665Z,21.60
2018-12-29T18:59:52.517Z,19.53
2018-12-29T19:02:07.541Z,20.27
2018-12-29T19:04:22.412Z,17.17
2018-12-29T19:06:37.120Z,15.13
2018-12-29T19:08:52.208Z,18.40
2018-12-29T19:11:06.948Z,16.90
2018-12-29T19:13:21.882Z,16.33
2018-12-29T19:15:36.721Z,17.87
2018-12-29T19:17:51.479Z,19.90
2018-12-29T19:20:06.497Z,22.70
2018-12-29T19:22:21.440Z,14.90
2018-12-29T19:24:36.708Z,17.07
2018-12-29T19:26:51.389Z,19.87
2018-12-29T19:29:06.457Z,18.83
2018-12-29T19:31:21.705Z,23.70
2018-12-29T19:33:36.596Z,12.17
2018-12-29T19:35:51.700Z,21.50
2018-12-29T19:38:06.612Z,22.47
2018-12-29T19:40:21.441Z,19.07
2018-12-29T19:42:36.348Z,25.07
2018-12-29T19:44:51.284Z,19.93
2018-12-29T19:47:06.236Z,26.00
2018-12-29T19:49:21.149Z,21.00
2018-12-29T19:51:35.957Z,24.10
2018-12-29T19:53:50.897Z,14.60
2018-12-29T19:56:05.884Z,18.60
2018-12-29T19:58:20.909Z,23.00
2018-12-29T20:00:35.896Z,24.80
2018-12-29T20:02:51.104Z,22.50
2018-12-29T20:05:05.669Z,17.67
2018-12-29T20:07:23.057Z,22.10
2018-12-29T20:09:37.437Z,25.10
2018-12-29T20:11:52.420Z,20.60
2018-12-29T20:14:07.309Z,17.80
2018-12-29T20:16:22.250Z,22.10
2018-12-29T20:18:37.337Z,18.83
2018-12-29T20:20:52.065Z,21.90
2018-12-29T20:23:07.076Z,20.07
2018-12-29T20:25:21.980Z,16.73
2018-12-29T20:27:36.852Z,13.63
2018-12-29T20:29:51.937Z,9.27
2018-12-29T20:32:06.713Z,12.03
2018-12-29T20:34:21.932Z,9.70
2018-12-29T20:36:36.941Z,5.93
2018-12-29T20:38:51.706Z,5.90
2018-12-29T20:41:06.644Z,4.77
2018-12-29T20:43:21.456Z,4.70
2018-12-29T20:45:36.272Z,2.93
2018-12-29T20:47:51.232Z,3.53
2018-12-29T20:50:09.870Z,3.83
2018-12-29T20:52:22.923Z,2.80
2018-12-29T20:54:38.084Z,3.40
2018-12-29T20:56:53.078Z,2.60
2018-12-29T20:59:07.817Z,3.43
2018-12-29T21:01:22.764Z,3.63
2018-12-29T21:03:37.734Z,3.33
2018-12-29T21:05:52.841Z,3.73
2018-12-29T21:08:07.556Z,2.87
2018-12-29T21:10:22.377Z,2.60
2018-12-29T21:12:37.361Z,2.57
2018-12-29T21:17:39.205Z,3.20
2018-12-29T21:19:53.949Z,2.63
2018-12-29T21:22:08.740Z,3.60
2018-12-29T21:24:23.622Z,3.03
2018-12-29T21:29:18.617Z,2.63
2018-12-29T21:31:33.752Z,3.20
2018-12-29T21:33:48.485Z,3.17
2018-12-29T21:36:04.738Z,2.63
2018-12-29T21:38:19.752Z,2.20
2018-12-29T21:40:34.564Z,2.27
2018-12-29T21:42:49.339Z,2.43
2018-12-29T21:45:04.169Z,2.20
2018-12-29T21:47:18.888Z,2.47
2018-12-29T21:49:34.697Z,3.00
2018-12-29T21:51:49.784Z,2.10
2018-12-29T21:54:04.593Z,2.60
2018-12-29T21:56:19.620Z,2.83
2018-12-29T21:58:34.572Z,2.07
2018-12-29T22:00:49.721Z,3.23
2018-12-29T22:03:04.657Z,3.07
2018-12-29T22:05:19.452Z,2.17
2018-12-29T22:07:34.409Z,2.33
2018-12-29T22:09:49.320Z,2.90
2018-12-29T22:12:04.165Z,2.07
2018-12-29T22:14:19.382Z,2.63
2018-12-29T22:16:34.111Z,2.60
2018-12-29T22:18:49.178Z,2.40
2018-12-29T22:21:03.940Z,3.20
2018-12-29T22:23:18.796Z,2.70
2018-12-29T22:25:33.882Z,2.33
2018-12-29T22:27:48.604Z,2.33
2018-12-29T22:30:03.520Z,2.43
2018-12-29T22:32:18.732Z,2.90
2018-12-29T22:34:33.335Z,2.60
2018-12-29T22:36:48.437Z,2.70
2018-12-29T22:39:03.732Z,2.97
2018-12-29T22:41:18.364Z,2.40
2018-12-29T22:43:33.369Z,2.30
2018-12-29T22:45:48.173Z,2.30
2018-12-29T22:48:03.316Z,2.40
2018-12-29T22:50:18.064Z,2.80
2018-12-29T22:52:32.798Z,2.30
2018-12-29T22:54:47.560Z,2.20
2018-12-29T22:57:02.401Z,2.30
2018-12-29T22:59:17.153Z,2.00
2018-12-29T23:01:31.912Z,2.20
2018-12-29T23:03:47.404Z,2.50
2018-12-29T23:06:01.656Z,2.13
2018-12-29T23:08:16.770Z,2.23
2018-12-29T23:10:31.440Z,1.97
2018-12-29T23:12:46.289Z,2.30
2018-12-29T23:15:01.072Z,2.17
2018-12-29T23:17:16.021Z,2.03
2018-12-29T23:19:30.968Z,2.27
2018-12-29T23:21:45.828Z,3.10
2018-12-29T23:24:00.997Z,2.60
2018-12-29T23:26:15.748Z,2.30
2018-12-29T23:28:30.748Z,1.83
2018-12-29T23:30:45.533Z,2.93
2018-12-29T23:33:00.440Z,2.50
2018-12-29T23:35:15.402Z,2.50
2018-12-29T23:37:30.392Z,2.40
2018-12-29T23:39:44.920Z,2.40
2018-12-29T23:41:59.637Z,2.70
2018-12-29T23:44:14.252Z,2.27
2018-12-29T23:46:29.212Z,2.37
2018-12-29T23:48:44.118Z,2.73
2018-12-29T23:51:05.629Z,2.80
2018-12-29T23:53:15.776Z,3.27
2018-12-29T23:55:30.705Z,2.07
2018-12-29T23:57:45.428Z,2.33
